createdAt,value
2023-03-15T00:00:51.277Z,0.00
2023-03-15T00:01:51.436Z,0.00
2023-03-15T00:02:51.258Z,0.00
2023-03-15T00:03:51.346Z,0.00
2023-03-15T00:04:51.225Z,0.00
2023-03-15T00:05:51.224Z,0.00
2023-03-15T00:06:51.374Z,0.00
2023-03-15T00:07:51.180Z,0.00
2023-03-15T00:08:51.172Z,0.00
2023-03-15T00:09:51.156Z,0.00
2023-03-15T00:10:51.156Z,0.00
2023-03-15T00:11:51.309Z,0.00
2023-03-15T00:12:51.123Z,0.00
2023-03-15T00:13:51.101Z,0.00
2023-03-15T00:14:51.093Z,0.00
2023-03-15T00:15:51.094Z,0.00
2023-03-15T00:16:51.082Z,0.00
2023-03-15T00:17:51.050Z,0.00
2023-03-15T00:18:51.053Z,0.00
2023-03-15T00:19:51.019Z,0.00
2023-03-15T00:20:51.020Z,0.00
2023-03-15T00:21:51.181Z,0.00
2023-03-15T00:22:50.994Z,0.00
2023-03-15T00:23:50.996Z,0.00
2023-03-15T00:24:50.959Z,0.00
2023-03-15T00:25:50.957Z,0.00
2023-03-15T00:26:51.120Z,0.00
2023-03-15T00:27:51.108Z,0.00
2023-03-15T00:28:50.919Z,0.00
2023-03-15T00:29:50.902Z,0.00
2023-03-15T00:30:50.920Z,0.00
2023-03-15T00:31:51.048Z,0.00
2023-03-15T00:32:50.891Z,0.00
2023-03-15T00:33:50.859Z,0.00
2023-03-15T00:34:50.839Z,0.00
2023-03-15T00:35:50.869Z,0.00
2023-03-15T00:36:50.993Z,0.00
2023-03-15T00:37:50.798Z,0.00
2023-03-15T00:38:50.797Z,0.00
2023-03-15T00:39:50.809Z,0.00
2023-03-15T00:40:50.768Z,0.00
2023-03-15T00:41:50.746Z,0.00
2023-03-15T00:42:50.743Z,0.00
2023-03-15T00:43:50.716Z,0.00
2023-03-15T00:44:50.888Z,0.00
2023-03-15T00:45:50.696Z,0.00
2023-03-15T00:46:50.774Z,0.00
2023-03-15T00:47:50.856Z,0.00
2023-03-15T00:48:50.664Z,0.00
2023-03-15T00:49:50.646Z,0.00
2023-03-15T00:50:50.633Z,0.00
2023-03-15T00:51:50.625Z,0.00
2023-03-15T00:52:50.623Z,0.00
2023-03-15T00:53:50.782Z,0.00
2023-03-15T00:54:50.585Z,0.00
2023-03-15T00:55:50.562Z,0.00
2023-03-15T00:56:50.572Z,0.00
2023-03-15T00:57:50.547Z,0.00
2023-03-15T00:58:50.534Z,0.00
2023-03-15T00:59:50.512Z,0.00
2023-03-15T01:00:50.510Z,0.00
2023-03-15T01:01:50.667Z,0.00
2023-03-15T01:02:50.513Z,0.00
2023-03-15T01:03:50.462Z,0.00
2023-03-15T01:04:50.641Z,0.00
2023-03-15T01:05:50.446Z,0.00
2023-03-15T01:06:50.652Z,0.00
2023-03-15T01:07:50.409Z,0.00
2023-03-15T01:08:50.414Z,0.00
2023-03-15T01:09:50.389Z,0.00
2023-03-15T01:10:50.564Z,0.00
2023-03-15T01:11:50.359Z,0.00
2023-03-15T01:12:50.378Z,0.00
2023-03-15T01:13:50.337Z,0.00
2023-03-15T01:14:50.328Z,0.00
2023-03-15T01:15:50.378Z,0.00
2023-03-15T01:16:50.486Z,0.00
2023-03-15T01:17:50.286Z,0.00
2023-03-15T01:18:50.282Z,0.00
2023-03-15T01:19:50.266Z,0.00
2023-03-15T01:20:50.263Z,0.00
2023-03-15T01:21:50.416Z,0.00
2023-03-15T01:22:50.226Z,0.00
2023-03-15T01:23:50.205Z,0.00
2023-03-15T01:24:50.195Z,0.00
2023-03-15T01:25:50.208Z,0.00
2023-03-15T01:26:50.202Z,0.00
2023-03-15T01:27:50.334Z,0.00
2023-03-15T01:28:50.174Z,0.00
2023-03-15T01:29:50.134Z,0.00
2023-03-15T01:30:50.134Z,0.00
2023-03-15T01:31:50.181Z,0.00
2023-03-15T01:32:50.348Z,0.00
2023-03-15T01:33:50.267Z,0.00
2023-03-15T01:34:50.071Z,0.00
2023-03-15T01:35:50.093Z,0.00
2023-03-15T01:36:50.049Z,0.00
2023-03-15T01:37:50.054Z,0.00
2023-03-15T01:38:50.202Z,0.00
2023-03-15T01:39:50.014Z,0.00
2023-03-15T01:40:50.001Z,0.00
2023-03-15T01:41:49.993Z,0.00
2023-03-15T01:42:49.969Z,0.00
2023-03-15T01:43:50.140Z,0.00
2023-03-15T01:44:49.944Z,0.00
2023-03-15T01:45:49.942Z,0.00
2023-03-15T01:46:49.998Z,0.00
2023-03-15T01:47:49.906Z,0.00
2023-03-15T01:48:50.082Z,0.00
2023-03-15T01:49:49.878Z,0.00
2023-03-15T01:50:49.869Z,0.00
2023-03-15T01:51:49.857Z,0.00
2023-03-15T01:52:49.845Z,0.00
2023-03-15T01:53:50.019Z,0.00
2023-03-15T01:54:49.837Z,0.00
2023-03-15T01:55:49.816Z,0.00
2023-03-15T01:56:49.787Z,0.00
2023-03-15T01:57:49.798Z,0.00
2023-03-15T01:58:49.946Z,0.00
2023-03-15T01:59:49.935Z,0.00
2023-03-15T02:00:49.816Z,0.00
2023-03-15T02:01:49.838Z,0.00
2023-03-15T02:02:49.725Z,0.00
2023-03-15T02:03:49.707Z,0.00
2023-03-15T02:04:49.896Z,0.00
2023-03-15T02:05:49.691Z,0.00
2023-03-15T02:06:49.669Z,0.00
2023-03-15T02:07:49.653Z,0.00
2023-03-15T02:08:49.642Z,0.00
2023-03-15T02:09:49.954Z,0.00
2023-03-15T02:10:49.607Z,0.00
2023-03-15T02:11:49.602Z,0.00
2023-03-15T02:12:49.582Z,0.00
2023-03-15T02:13:49.578Z,0.00
2023-03-15T02:14:49.750Z,0.00
2023-03-15T02:15:49.568Z,0.00
2023-03-15T02:16:49.599Z,0.00
2023-03-15T02:17:49.534Z,0.00
2023-03-15T02:18:49.514Z,0.00
2023-03-15T02:19:49.516Z,0.00
2023-03-15T02:20:49.503Z,0.00
2023-03-15T02:21:49.479Z,0.00
2023-03-15T02:22:49.470Z,0.00
2023-03-15T02:23:49.458Z,0.00
2023-03-15T02:24:49.441Z,0.00
2023-03-15T02:25:49.728Z,0.00
2023-03-15T02:26:49.420Z,0.00
2023-03-15T02:27:49.413Z,0.00
2023-03-15T02:28:49.385Z,0.00
2023-03-15T02:29:49.378Z,0.00
2023-03-15T02:30:49.562Z,0.00
2023-03-15T02:31:49.613Z,0.00
2023-03-15T02:32:49.367Z,0.00
2023-03-15T02:33:49.327Z,0.00
2023-03-15T02:34:49.320Z,0.00
2023-03-15T02:35:49.353Z,0.00
2023-03-15T02:36:49.477Z,0.00
2023-03-15T02:37:49.290Z,0.00
2023-03-15T02:38:49.275Z,0.00
2023-03-15T02:39:49.266Z,0.00
2023-03-15T02:40:49.236Z,0.00
2023-03-15T02:41:49.239Z,0.00
2023-03-15T02:42:49.208Z,0.00
2023-03-15T02:43:49.198Z,0.00
2023-03-15T02:44:49.207Z,0.00
2023-03-15T02:45:49.261Z,0.00
2023-03-15T02:46:49.346Z,0.00
2023-03-15T02:47:49.148Z,0.00
2023-03-15T02:48:49.148Z,0.00
2023-03-15T02:49:49.120Z,0.00
2023-03-15T02:50:49.117Z,0.00
2023-03-15T02:51:49.125Z,0.00
2023-03-15T02:52:49.270Z,0.00
2023-03-15T02:53:49.069Z,0.00
2023-03-15T02:54:49.062Z,0.00
2023-03-15T02:55:49.055Z,0.00
2023-03-15T02:56:49.051Z,0.00
2023-03-15T02:57:49.200Z,0.00
2023-03-15T02:58:49.016Z,0.00
2023-03-15T02:59:48.987Z,0.00
2023-03-15T03:00:49.000Z,0.00
2023-03-15T03:01:48.979Z,0.00
2023-03-15T03:02:49.087Z,0.00
2023-03-15T03:03:48.966Z,0.00
2023-03-15T03:04:48.956Z,0.00
2023-03-15T03:05:48.926Z,0.00
2023-03-15T03:06:48.918Z,0.00
2023-03-15T03:07:49.086Z,0.00
2023-03-15T03:08:49.059Z,0.00
2023-03-15T03:09:48.879Z,0.00
2023-03-15T03:10:48.864Z,0.00
2023-03-15T03:11:48.848Z,0.00
2023-03-15T03:12:48.845Z,0.00
2023-03-15T03:13:49.016Z,0.00
2023-03-15T03:14:48.822Z,0.00
2023-03-15T03:15:48.816Z,0.00
2023-03-15T03:16:48.869Z,0.00
2023-03-15T03:17:48.764Z,0.00
2023-03-15T03:18:48.773Z,0.00
2023-03-15T03:19:48.782Z,0.00
2023-03-15T03:20:48.745Z,0.00
2023-03-15T03:21:48.723Z,0.00
2023-03-15T03:22:48.898Z,0.00
2023-03-15T03:23:48.870Z,0.00
2023-03-15T03:24:48.686Z,0.00
2023-03-15T03:25:48.671Z,0.00
2023-03-15T03:26:48.688Z,0.00
2023-03-15T03:27:48.636Z,0.00
2023-03-15T03:28:48.646Z,0.00
2023-03-15T03:29:48.612Z,0.00
2023-03-15T03:30:48.677Z,0.00
2023-03-15T03:31:48.596Z,0.00
2023-03-15T03:32:48.633Z,0.00
2023-03-15T03:33:48.580Z,0.00
2023-03-15T03:34:48.680Z,0.00
2023-03-15T03:35:48.549Z,0.00
2023-03-15T03:36:48.522Z,0.00
2023-03-15T03:37:48.511Z,0.00
2023-03-15T03:38:48.692Z,0.00
2023-03-15T03:39:48.490Z,0.00
2023-03-15T03:40:48.481Z,0.00
2023-03-15T03:41:48.459Z,0.00
2023-03-15T03:42:48.448Z,0.00
2023-03-15T03:43:48.439Z,0.00
2023-03-15T03:44:48.449Z,0.00
2023-03-15T03:45:48.664Z,0.00
2023-03-15T03:46:48.397Z,0.00
2023-03-15T03:47:48.378Z,0.00
2023-03-15T03:48:49.098Z,0.00
2023-03-15T03:49:48.387Z,0.00
2023-03-15T03:50:48.534Z,0.00
2023-03-15T03:51:48.336Z,0.00
2023-03-15T03:52:48.315Z,0.00
2023-03-15T03:53:48.307Z,0.00
2023-03-15T03:54:48.306Z,0.00
2023-03-15T03:55:48.478Z,0.00
2023-03-15T03:56:48.269Z,0.00
2023-03-15T03:57:48.254Z,0.00
2023-03-15T03:58:48.235Z,0.00
2023-03-15T03:59:48.234Z,0.00
2023-03-15T04:00:48.229Z,0.00
2023-03-15T04:01:48.214Z,0.00
2023-03-15T04:02:48.254Z,0.00
2023-03-15T04:03:48.203Z,0.00
2023-03-15T04:04:48.174Z,0.00
2023-03-15T04:05:48.162Z,0.00
2023-03-15T04:06:48.140Z,0.00
2023-03-15T04:07:48.135Z,0.00
2023-03-15T04:08:48.298Z,0.00
2023-03-15T04:09:48.122Z,0.00
2023-03-15T04:10:48.103Z,0.00
2023-03-15T04:11:48.089Z,0.00
2023-03-15T04:12:48.061Z,0.00
2023-03-15T04:13:48.054Z,0.00
2023-03-15T04:14:48.219Z,0.00
2023-03-15T04:15:48.085Z,0.00
2023-03-15T04:16:48.040Z,0.00
2023-03-15T04:17:48.012Z,0.00
2023-03-15T04:18:47.991Z,0.00
2023-03-15T04:19:47.977Z,0.00
2023-03-15T04:20:48.140Z,0.00
2023-03-15T04:21:47.969Z,0.00
2023-03-15T04:22:47.937Z,0.00
2023-03-15T04:23:47.928Z,0.00
2023-03-15T04:24:47.917Z,0.00
2023-03-15T04:25:47.908Z,0.00
2023-03-15T04:26:47.899Z,0.00
2023-03-15T04:27:48.046Z,0.00
2023-03-15T04:28:47.857Z,0.00
2023-03-15T04:29:47.861Z,0.00
2023-03-15T04:30:47.860Z,0.00
2023-03-15T04:31:47.828Z,0.00
2023-03-15T04:32:48.070Z,0.00
2023-03-15T04:33:47.802Z,0.00
2023-03-15T04:34:47.790Z,0.00
2023-03-15T04:35:47.983Z,0.00
2023-03-15T04:36:47.760Z,0.00
2023-03-15T04:37:47.760Z,0.00
2023-03-15T04:38:47.737Z,0.00
2023-03-15T04:39:47.734Z,0.00
2023-03-15T04:40:47.892Z,0.00
2023-03-15T04:41:47.712Z,0.00
2023-03-15T04:42:47.689Z,0.00
2023-03-15T04:43:47.688Z,0.00
2023-03-15T04:44:47.682Z,0.00
2023-03-15T04:45:47.830Z,0.00
2023-03-15T04:46:47.753Z,0.00
2023-03-15T04:47:47.638Z,0.00
2023-03-15T04:48:47.626Z,0.00
2023-03-15T04:49:47.613Z,0.00
2023-03-15T04:50:47.782Z,0.00
2023-03-15T04:51:47.768Z,0.00
2023-03-15T04:52:47.563Z,0.00
2023-03-15T04:53:47.562Z,0.00
2023-03-15T04:54:47.545Z,0.00
2023-03-15T04:55:47.545Z,0.00
2023-03-15T04:56:47.508Z,0.00
2023-03-15T04:57:47.507Z,0.00
2023-03-15T04:58:47.480Z,0.00
2023-03-15T04:59:47.490Z,0.00
2023-03-15T05:00:47.672Z,0.00
2023-03-15T05:01:47.645Z,0.00
2023-03-15T05:02:47.438Z,0.00
2023-03-15T05:03:47.432Z,0.00
2023-03-15T05:04:47.405Z,0.00
2023-03-15T05:05:47.404Z,0.00
2023-03-15T05:06:47.558Z,0.00
2023-03-15T05:07:47.565Z,0.00
2023-03-15T05:08:47.355Z,0.00
2023-03-15T05:09:47.366Z,0.00
2023-03-15T05:10:47.337Z,0.00
2023-03-15T05:11:47.504Z,0.00
2023-03-15T05:12:47.309Z,0.00
2023-03-15T05:13:47.298Z,0.00
2023-03-15T05:14:47.292Z,0.00
2023-03-15T05:15:47.284Z,0.00
2023-03-15T05:16:47.460Z,0.00
2023-03-15T05:17:47.263Z,0.00
2023-03-15T05:18:47.232Z,0.00
2023-03-15T05:19:47.225Z,0.00
2023-03-15T05:20:47.203Z,0.00
2023-03-15T05:21:47.200Z,0.00
2023-03-15T05:22:47.370Z,0.00
2023-03-15T05:23:47.176Z,0.00
2023-03-15T05:24:47.158Z,0.00
2023-03-15T05:25:47.146Z,0.00
2023-03-15T05:26:47.146Z,0.00
2023-03-15T05:27:47.155Z,0.00
2023-03-15T05:28:47.123Z,0.00
2023-03-15T05:29:47.096Z,0.00
2023-03-15T05:30:47.071Z,0.00
2023-03-15T05:31:47.099Z,0.00
2023-03-15T05:32:47.061Z,0.00
2023-03-15T05:33:47.218Z,0.00
2023-03-15T05:34:47.206Z,0.00
2023-03-15T05:35:47.059Z,0.00
2023-03-15T05:36:47.011Z,0.00
2023-03-15T05:37:46.996Z,0.00
2023-03-15T05:38:46.974Z,0.00
2023-03-15T05:39:47.147Z,0.00
2023-03-15T05:40:47.127Z,0.00
2023-03-15T05:41:46.948Z,0.00
2023-03-15T05:42:46.924Z,0.00
2023-03-15T05:43:46.965Z,0.00
2023-03-15T05:44:46.905Z,0.00
2023-03-15T05:45:47.104Z,0.00
2023-03-15T05:46:46.911Z,0.00
2023-03-15T05:47:47.047Z,0.00
2023-03-15T05:48:47.593Z,0.00
2023-03-15T05:49:46.841Z,0.00
2023-03-15T05:50:46.814Z,0.00
2023-03-15T05:51:46.824Z,0.00
2023-03-15T05:52:46.988Z,0.00
2023-03-15T05:53:46.795Z,0.00
2023-03-15T05:54:46.775Z,0.00
2023-03-15T05:55:46.777Z,0.00
2023-03-15T05:56:46.763Z,0.00
2023-03-15T05:57:46.752Z,0.00
2023-03-15T05:58:46.729Z,0.00
2023-03-15T05:59:46.713Z,0.00
2023-03-15T06:00:46.720Z,0.00
2023-03-15T06:01:46.862Z,0.00
2023-03-15T06:02:46.850Z,0.00
2023-03-15T06:03:46.779Z,0.00
2023-03-15T06:04:46.639Z,0.00
2023-03-15T06:05:46.647Z,0.00
2023-03-15T06:06:46.618Z,0.00
2023-03-15T06:07:46.643Z,0.00
2023-03-15T06:08:46.587Z,0.00
2023-03-15T06:09:46.585Z,0.00
2023-03-15T06:10:46.745Z,0.00
2023-03-15T06:11:46.570Z,0.00
2023-03-15T06:12:46.538Z,0.00
2023-03-15T06:13:46.545Z,0.00
2023-03-15T06:14:46.517Z,0.00
2023-03-15T06:15:46.503Z,0.00
2023-03-15T06:16:46.516Z,0.00
2023-03-15T06:17:46.671Z,0.00
2023-03-15T06:18:46.463Z,0.00
2023-03-15T06:19:46.452Z,0.00
2023-03-15T06:20:46.433Z,0.00
2023-03-15T06:21:46.444Z,0.00
2023-03-15T06:22:46.620Z,0.00
2023-03-15T06:23:46.589Z,0.00
2023-03-15T06:24:46.395Z,0.00
2023-03-15T06:25:46.372Z,0.00
2023-03-15T06:26:46.361Z,0.00
2023-03-15T06:27:46.357Z,0.00
2023-03-15T06:28:46.350Z,0.00
2023-03-15T06:29:46.525Z,0.00
2023-03-15T06:30:46.360Z,0.00
2023-03-15T06:31:46.308Z,0.00
2023-03-15T06:32:46.334Z,0.00
2023-03-15T06:33:46.465Z,0.00
2023-03-15T06:34:46.257Z,0.00
2023-03-15T06:35:46.255Z,0.00
2023-03-15T06:36:46.227Z,0.00
2023-03-15T06:37:46.228Z,0.00
2023-03-15T06:38:46.391Z,0.00
2023-03-15T06:39:46.198Z,0.00
2023-03-15T06:40:46.177Z,0.00
2023-03-15T06:41:46.179Z,0.00
2023-03-15T06:42:46.168Z,0.00
2023-03-15T06:43:46.331Z,0.00
2023-03-15T06:44:46.302Z,0.00
2023-03-15T06:45:46.159Z,0.00
2023-03-15T06:46:46.126Z,0.00
2023-03-15T06:47:46.097Z,0.00
2023-03-15T06:48:46.085Z,0.00
2023-03-15T06:49:46.245Z,0.00
2023-03-15T06:50:47.671Z,5.62
2023-03-15T06:51:46.067Z,5.62
2023-03-15T06:52:46.038Z,0.00
2023-03-15T06:53:46.035Z,0.00
2023-03-15T06:54:45.995Z,0.00
2023-03-15T06:55:45.994Z,0.00
2023-03-15T06:56:46.154Z,0.00
2023-03-15T06:57:45.986Z,0.00
2023-03-15T06:58:45.965Z,0.00
2023-03-15T06:59:45.942Z,5.62
2023-03-15T07:00:45.921Z,5.62
2023-03-15T07:01:46.152Z,5.62
2023-03-15T07:02:46.149Z,0.00
2023-03-15T07:03:45.922Z,0.00
2023-03-15T07:04:45.890Z,0.00
2023-03-15T07:05:45.875Z,0.00
2023-03-15T07:06:46.046Z,0.00
2023-03-15T07:07:45.867Z,5.62
2023-03-15T07:08:45.834Z,5.62
2023-03-15T07:09:45.837Z,5.62
2023-03-15T07:10:45.807Z,5.62
2023-03-15T07:11:45.992Z,5.62
2023-03-15T07:12:45.782Z,11.25
2023-03-15T07:13:45.771Z,11.25
2023-03-15T07:14:45.753Z,11.25
2023-03-15T07:15:45.779Z,11.25
2023-03-15T07:16:45.903Z,5.62
2023-03-15T07:17:45.723Z,5.62
2023-03-15T07:18:45.703Z,5.62
2023-03-15T07:19:55.998Z,5.62
2023-03-15T07:20:46.693Z,5.62
2023-03-15T07:21:45.863Z,5.62
2023-03-15T07:22:45.677Z,5.62
2023-03-15T07:23:45.645Z,5.62
2023-03-15T07:24:45.634Z,5.62
2023-03-15T07:25:54.815Z,0.00
2023-03-15T07:26:46.613Z,0.00
2023-03-15T07:27:45.669Z,5.62
2023-03-15T07:28:45.576Z,5.62
2023-03-15T07:29:46.361Z,5.62
2023-03-15T07:30:45.609Z,5.62
2023-03-15T07:31:45.545Z,5.62
2023-03-15T07:32:45.887Z,5.62
2023-03-15T07:33:45.556Z,5.62
2023-03-15T07:34:45.511Z,11.25
2023-03-15T07:35:45.564Z,11.25
2023-03-15T07:36:45.530Z,11.25
2023-03-15T07:37:45.469Z,11.25
2023-03-15T07:38:45.628Z,5.62
2023-03-15T07:39:45.439Z,5.62
2023-03-15T07:40:45.421Z,11.25
2023-03-15T07:41:45.596Z,11.25
2023-03-15T07:42:45.400Z,11.25
2023-03-15T07:43:45.385Z,11.25
2023-03-15T07:44:45.373Z,11.25
2023-03-15T07:45:45.368Z,16.88
2023-03-15T07:46:45.578Z,16.88
2023-03-15T07:47:45.344Z,16.88
2023-03-15T07:48:45.313Z,16.88
2023-03-15T07:49:45.313Z,16.88
2023-03-15T07:50:45.310Z,22.50
2023-03-15T07:51:45.282Z,22.50
2023-03-15T07:52:45.269Z,28.12
2023-03-15T07:53:45.261Z,33.75
2023-03-15T07:54:45.231Z,22.50
2023-03-15T07:55:45.419Z,22.50
2023-03-15T07:56:45.403Z,39.38
2023-03-15T07:57:45.213Z,22.50
2023-03-15T07:58:45.190Z,39.38
2023-03-15T07:59:45.187Z,22.50
2023-03-15T08:00:45.186Z,16.88
2023-03-15T08:01:45.194Z,16.88
2023-03-15T08:02:45.223Z,16.88
2023-03-15T08:03:45.128Z,22.50
2023-03-15T08:04:45.157Z,22.50
2023-03-15T08:05:45.319Z,22.50
2023-03-15T08:06:45.086Z,22.50
2023-03-15T08:07:45.077Z,28.12
2023-03-15T08:08:45.067Z,28.12
2023-03-15T08:09:45.241Z,28.12
2023-03-15T08:10:45.047Z,28.12
2023-03-15T08:11:45.780Z,28.12
2023-03-15T08:12:45.019Z,28.12
2023-03-15T08:13:45.013Z,39.38
2023-03-15T08:14:44.976Z,28.12
2023-03-15T08:15:44.966Z,22.50
2023-03-15T08:16:45.312Z,22.50
2023-03-15T08:17:44.951Z,22.50
2023-03-15T08:18:44.934Z,22.50
2023-03-15T08:19:45.101Z,22.50
2023-03-15T08:20:44.905Z,22.50
2023-03-15T08:21:45.088Z,22.50
2023-03-15T08:22:44.874Z,28.12
2023-03-15T08:23:44.885Z,28.12
2023-03-15T08:24:45.025Z,33.75
2023-03-15T08:25:44.892Z,28.12
2023-03-15T08:26:44.884Z,33.75
2023-03-15T08:27:44.993Z,61.88
2023-03-15T08:28:44.835Z,61.88
2023-03-15T08:29:44.924Z,50.62
2023-03-15T08:30:44.815Z,28.12
2023-03-15T08:31:44.828Z,28.12
2023-03-15T08:32:44.834Z,33.75
2023-03-15T08:33:44.752Z,39.38
2023-03-15T08:34:44.724Z,39.38
2023-03-15T08:35:44.952Z,39.38
2023-03-15T08:36:44.932Z,45.00
2023-03-15T08:37:44.702Z,33.75
2023-03-15T08:38:44.673Z,28.12
2023-03-15T08:39:44.677Z,22.50
2023-03-15T08:40:44.652Z,16.88
2023-03-15T08:41:44.910Z,16.88
2023-03-15T08:42:44.641Z,16.88
2023-03-15T08:43:44.612Z,16.88
2023-03-15T08:44:44.610Z,16.88
2023-03-15T08:46:00.231Z,16.88
2023-03-15T08:46:45.812Z,16.88
2023-03-15T08:47:44.734Z,16.88
2023-03-15T08:48:44.559Z,16.88
2023-03-15T08:49:44.526Z,16.88
2023-03-15T08:50:44.530Z,16.88
2023-03-15T08:51:44.699Z,67.50
2023-03-15T08:52:44.500Z,67.50
2023-03-15T08:53:44.506Z,67.50
2023-03-15T08:54:44.468Z,73.12
2023-03-15T08:55:44.453Z,73.12
2023-03-15T08:56:44.452Z,73.12
2023-03-15T08:57:44.453Z,73.12
2023-03-15T08:58:44.446Z,39.38
2023-03-15T08:59:44.403Z,45.00
2023-03-15T09:00:44.391Z,45.00
2023-03-15T09:01:44.381Z,45.00
2023-03-15T09:02:44.475Z,22.50
2023-03-15T09:03:44.524Z,22.50
2023-03-15T09:04:44.354Z,22.50
2023-03-15T09:05:44.334Z,22.50
2023-03-15T09:06:44.309Z,28.12
2023-03-15T09:07:44.301Z,78.75
2023-03-15T09:08:44.468Z,84.38
2023-03-15T09:09:44.271Z,84.38
2023-03-15T09:10:44.258Z,84.38
2023-03-15T09:11:44.237Z,84.38
2023-03-15T09:12:44.239Z,90.00
2023-03-15T09:13:44.402Z,90.00
2023-03-15T09:14:44.442Z,95.62
2023-03-15T09:15:44.186Z,95.62
2023-03-15T09:16:44.264Z,95.62
2023-03-15T09:17:44.168Z,95.62
2023-03-15T09:18:44.325Z,95.62
2023-03-15T09:19:44.158Z,95.62
2023-03-15T09:20:44.137Z,101.25
2023-03-15T09:21:44.985Z,101.25
2023-03-15T09:22:44.278Z,106.88
2023-03-15T09:23:44.100Z,106.88
2023-03-15T09:24:44.261Z,101.25
2023-03-15T09:25:44.057Z,45.00
2023-03-15T09:26:44.082Z,50.62
2023-03-15T09:27:44.219Z,50.62
2023-03-15T09:28:44.044Z,39.38
2023-03-15T09:29:44.020Z,33.75
2023-03-15T09:30:44.062Z,28.12
2023-03-15T09:31:44.022Z,28.12
2023-03-15T09:32:44.214Z,22.50
2023-03-15T09:33:43.969Z,28.12
2023-03-15T09:34:43.960Z,28.12
2023-03-15T09:35:43.980Z,33.75
2023-03-15T09:36:43.940Z,39.38
2023-03-15T09:37:44.108Z,106.88
2023-03-15T09:38:43.933Z,112.50
2023-03-15T09:39:43.985Z,112.50
2023-03-15T09:40:43.881Z,118.12
2023-03-15T09:41:43.859Z,123.75
2023-03-15T09:42:44.039Z,123.75
2023-03-15T09:43:43.840Z,101.25
2023-03-15T09:44:43.834Z,90.00
2023-03-15T09:45:43.837Z,78.75
2023-03-15T09:46:43.865Z,56.25
2023-03-15T09:47:43.797Z,118.12
2023-03-15T09:48:43.792Z,78.75
2023-03-15T09:49:43.769Z,56.25
2023-03-15T09:50:43.758Z,95.62
2023-03-15T09:51:43.941Z,28.12
2023-03-15T09:52:43.743Z,22.50
2023-03-15T09:53:43.889Z,22.50
2023-03-15T09:54:43.704Z,22.50
2023-03-15T09:55:43.696Z,22.50
2023-03-15T09:56:43.679Z,22.50
2023-03-15T09:57:44.095Z,22.50
2023-03-15T09:58:43.850Z,22.50
2023-03-15T09:59:44.099Z,22.50
2023-03-15T10:00:43.618Z,22.50
2023-03-15T10:01:43.710Z,22.50
2023-03-15T10:02:43.588Z,28.12
2023-03-15T10:03:43.901Z,84.38
2023-03-15T10:04:43.568Z,118.12
2023-03-15T10:05:43.566Z,112.50
2023-03-15T10:06:43.538Z,112.50
2023-03-15T10:07:43.539Z,61.88
2023-03-15T10:08:43.709Z,33.75
2023-03-15T10:09:43.527Z,33.75
2023-03-15T10:10:43.499Z,22.50
2023-03-15T10:11:43.498Z,22.50
2023-03-15T10:12:43.466Z,22.50
2023-03-15T10:13:43.635Z,22.50
2023-03-15T10:14:43.439Z,22.50
2023-03-15T10:15:43.502Z,106.88
2023-03-15T10:16:43.415Z,106.88
2023-03-15T10:17:43.443Z,106.88
2023-03-15T10:18:43.568Z,106.88
2023-03-15T10:19:43.391Z,106.88
2023-03-15T10:20:43.382Z,106.88
2023-03-15T10:21:43.364Z,106.88
2023-03-15T10:22:43.337Z,106.88
2023-03-15T10:23:43.340Z,106.88
2023-03-15T10:24:43.320Z,112.50
2023-03-15T10:25:43.485Z,112.50
2023-03-15T10:26:43.297Z,112.50
2023-03-15T10:27:43.492Z,112.50
2023-03-15T10:28:43.273Z,118.12
2023-03-15T10:29:43.257Z,118.12
2023-03-15T10:30:43.259Z,118.12
2023-03-15T10:31:44.891Z,118.12
2023-03-15T10:32:43.248Z,123.75
2023-03-15T10:33:43.208Z,56.25
2023-03-15T10:34:43.179Z,123.75
2023-03-15T10:35:43.358Z,123.75
2023-03-15T10:36:43.337Z,123.75
2023-03-15T10:37:43.177Z,123.75
2023-03-15T10:38:43.130Z,123.75
2023-03-15T10:39:43.119Z,129.38
2023-03-15T10:40:43.145Z,129.38
2023-03-15T10:41:43.265Z,129.38
2023-03-15T10:42:43.072Z,101.25
2023-03-15T10:43:43.076Z,112.50
2023-03-15T10:44:43.054Z,123.75
2023-03-15T10:45:43.046Z,33.75
2023-03-15T10:46:43.072Z,28.12
2023-03-15T10:47:50.399Z,28.12
2023-03-15T10:48:44.173Z,28.12
2023-03-15T10:49:42.991Z,28.12
2023-03-15T10:50:42.973Z,28.12
2023-03-15T10:51:42.967Z,22.50
2023-03-15T10:52:43.126Z,28.12
2023-03-15T10:53:43.002Z,28.12
2023-03-15T10:54:43.058Z,28.12
2023-03-15T10:55:42.973Z,28.12
2023-03-15T10:56:42.901Z,33.75
2023-03-15T10:57:43.069Z,112.50
2023-03-15T10:58:42.872Z,123.75
2023-03-15T10:59:42.868Z,129.38
2023-03-15T11:00:42.849Z,129.38
2023-03-15T11:01:42.880Z,129.38
2023-03-15T11:02:42.869Z,129.38
2023-03-15T11:03:42.991Z,129.38
2023-03-15T11:04:42.819Z,129.38
2023-03-15T11:05:42.885Z,50.62
2023-03-15T11:06:42.812Z,135.00
2023-03-15T11:07:42.839Z,129.38
2023-03-15T11:08:43.128Z,123.75
2023-03-15T11:09:42.763Z,56.25
2023-03-15T11:10:42.720Z,45.00
2023-03-15T11:11:42.708Z,129.38
2023-03-15T11:12:42.697Z,129.38
2023-03-15T11:13:42.877Z,135.00
2023-03-15T11:14:42.844Z,135.00
2023-03-15T11:15:42.661Z,140.62
2023-03-15T11:16:42.637Z,140.62
2023-03-15T11:17:42.637Z,140.62
2023-03-15T11:18:42.624Z,118.12
2023-03-15T11:19:42.777Z,78.75
2023-03-15T11:20:42.595Z,50.62
2023-03-15T11:21:42.588Z,45.00
2023-03-15T11:22:42.566Z,45.00
2023-03-15T11:23:42.736Z,39.38
2023-03-15T11:24:42.557Z,56.25
2023-03-15T11:25:42.540Z,33.75
2023-03-15T11:26:42.524Z,33.75
2023-03-15T11:27:42.505Z,33.75
2023-03-15T11:28:42.670Z,28.12
2023-03-15T11:29:42.494Z,28.12
2023-03-15T11:30:42.463Z,28.12
2023-03-15T11:31:42.725Z,22.50
2023-03-15T11:32:42.478Z,22.50
2023-03-15T11:33:42.443Z,22.50
2023-03-15T11:34:42.415Z,22.50
2023-03-15T11:35:42.414Z,22.50
2023-03-15T11:36:42.411Z,16.88
2023-03-15T11:37:42.397Z,16.88
2023-03-15T11:38:42.365Z,11.25
2023-03-15T11:39:42.355Z,11.25
2023-03-15T11:40:42.335Z,11.25
2023-03-15T11:41:42.506Z,11.25
2023-03-15T11:42:42.325Z,16.88
2023-03-15T11:43:42.306Z,16.88
2023-03-15T11:44:42.295Z,16.88
2023-03-15T11:45:42.306Z,16.88
2023-03-15T11:46:42.277Z,16.88
2023-03-15T11:47:42.247Z,22.50
2023-03-15T11:48:42.247Z,22.50
2023-03-15T11:49:42.214Z,28.12
2023-03-15T11:50:42.216Z,56.25
2023-03-15T11:51:42.390Z,112.50
2023-03-15T11:52:42.186Z,78.75
2023-03-15T11:53:42.194Z,101.25
2023-03-15T11:54:42.174Z,106.88
2023-03-15T11:55:42.870Z,106.88
2023-03-15T11:56:42.155Z,101.25
2023-03-15T11:57:42.335Z,106.88
2023-03-15T11:58:42.113Z,106.88
2023-03-15T11:59:42.122Z,112.50
2023-03-15T12:00:42.098Z,112.50
2023-03-15T12:01:42.065Z,112.50
2023-03-15T12:02:42.270Z,112.50
2023-03-15T12:03:42.287Z,106.88
2023-03-15T12:04:42.040Z,106.88
2023-03-15T12:05:42.017Z,101.25
2023-03-15T12:06:42.004Z,101.25
2023-03-15T12:07:42.162Z,61.88
2023-03-15T12:08:41.988Z,33.75
2023-03-15T12:09:41.965Z,84.38
2023-03-15T12:10:42.131Z,61.88
2023-03-15T12:11:41.956Z,101.25
2023-03-15T12:12:41.953Z,22.50
2023-03-15T12:13:41.922Z,22.50
2023-03-15T12:14:41.903Z,28.12
2023-03-15T12:15:42.115Z,101.25
2023-03-15T12:16:41.900Z,95.62
2023-03-15T12:17:41.863Z,95.62
2023-03-15T12:18:42.036Z,84.38
2023-03-15T12:19:41.840Z,95.62
2023-03-15T12:20:41.830Z,95.62
2023-03-15T12:21:41.831Z,90.00
2023-03-15T12:22:41.810Z,90.00
2023-03-15T12:23:42.019Z,90.00
2023-03-15T12:24:41.791Z,28.12
2023-03-15T12:25:54.136Z,56.25
2023-03-15T12:26:42.759Z,84.38
2023-03-15T12:27:41.739Z,90.00
2023-03-15T12:28:41.744Z,90.00
2023-03-15T12:29:42.399Z,90.00
2023-03-15T12:30:41.760Z,90.00
2023-03-15T12:31:41.877Z,90.00
2023-03-15T12:32:41.726Z,90.00
2023-03-15T12:33:41.668Z,84.38
2023-03-15T12:34:41.651Z,84.38
2023-03-15T12:35:41.661Z,84.38
2023-03-15T12:36:41.642Z,84.38
2023-03-15T12:37:41.606Z,84.38
2023-03-15T12:38:41.609Z,84.38
2023-03-15T12:39:41.581Z,78.75
2023-03-15T12:40:41.580Z,78.75
2023-03-15T12:41:41.734Z,78.75
2023-03-15T12:42:41.549Z,84.38
2023-03-15T12:43:41.538Z,84.38
2023-03-15T12:44:41.525Z,67.50
2023-03-15T12:45:41.518Z,78.75
2023-03-15T12:46:41.613Z,78.75
2023-03-15T12:47:41.510Z,78.75
2023-03-15T12:48:41.471Z,28.12
2023-03-15T12:49:41.452Z,28.12
2023-03-15T12:50:41.452Z,28.12
2023-03-15T12:51:41.432Z,28.12
2023-03-15T12:52:41.440Z,28.12
2023-03-15T12:53:41.408Z,28.12
2023-03-15T12:54:41.410Z,28.12
2023-03-15T12:55:41.378Z,67.50
2023-03-15T12:56:41.370Z,67.50
2023-03-15T12:57:41.360Z,67.50
2023-03-15T12:58:41.339Z,67.50
2023-03-15T12:59:41.340Z,67.50
2023-03-15T13:00:41.322Z,67.50
2023-03-15T13:01:41.358Z,67.50
2023-03-15T13:02:44.238Z,67.50
2023-03-15T13:03:41.268Z,33.75
2023-03-15T13:04:41.267Z,67.50